Time;durP1;ratioP1;P1;durP2;ratioP2;P2;SDS_P1;SDS_P2;PMS_P1;PMS_P2;Temp;Humidity;BMP_temperature;BMP_pressure;BME280_temperature;BME280_humidity;BME280_pressure;Samples;Min_cycle;Max_cycle;Signal;HPM_P1;HPM_P2
2023/04/24 00:01:00;;;;;;;;;;;22.00;54.80;;;;;;1577870;73;702;-62
2023/04/24 00:03:02;;;;;;;;;;;21.90;55.10;;;;;;1585500;73;675;-60
2023/04/24 00:05:08;;;;;;;;;;;22.00;55.00;;;;;;1575816;73;1126;-61
2023/04/24 00:07:11;;;;;;;;;;;22.00;54.90;;;;;;1566453;73;1921;-62
2023/04/24 00:09:13;;;;;;;;;;;22.00;54.80;;;;;;1578552;73;804;-61
2023/04/24 00:11:14;;;;;;;;;;;22.00;54.90;;;;;;1582275;73;1543;-62
2023/04/24 00:13:16;;;;;;;;;;;22.00;55.00;;;;;;1581432;73;720;-60
2023/04/24 00:15:18;;;;;;;;;;;22.00;55.00;;;;;;1596039;73;1141;-60
2023/04/24 00:17:20;;;;;;;;;;;22.00;55.10;;;;;;1595608;73;771;-62
2023/04/24 00:19:22;;;;;;;;;;;21.90;55.20;;;;;;1572118;73;765;-62
2023/04/24 00:21:25;;;;;;;;;;;22.00;55.10;;;;;;1585500;73;698;-61
2023/04/24 00:23:27;;;;;;;;;;;22.00;55.20;;;;;;1563969;73;704;-61
2023/04/24 00:25:29;;;;;;;;;;;22.00;55.10;;;;;;1590099;73;1944;-61
2023/04/24 00:27:31;;;;;;;;;;;21.90;55.00;;;;;;1574198;73;701;-61
2023/04/24 00:29:32;;;;;;;;;;;22.00;55.00;;;;;;1575970;73;677;-61
2023/04/24 00:31:34;;;;;;;;;;;22.00;55.10;;;;;;1581026;73;731;-62
2023/04/24 00:33:36;;;;;;;;;;;22.10;55.00;;;;;;1575188;73;720;-60
2023/04/24 00:35:38;;;;;;;;;;;22.10;55.00;;;;;;1563521;73;1155;-61
2023/04/24 00:37:40;;;;;;;;;;;22.20;54.90;;;;;;1586793;73;773;-62
2023/04/24 00:39:42;;;;;;;;;;;22.10;54.90;;;;;;1583852;73;1585;-61
2023/04/24 00:41:45;;;;;;;;;;;22.10;54.70;;;;;;1574145;73;784;-62
2023/04/24 00:43:47;;;;;;;;;;;22.20;54.70;;;;;;1577507;73;801;-62
2023/04/24 00:45:49;;;;;;;;;;;22.10;54.60;;;;;;1581543;73;1954;-62
2023/04/24 00:47:51;;;;;;;;;;;22.20;54.70;;;;;;1569692;73;1068;-61
2023/04/24 00:49:53;;;;;;;;;;;22.20;54.90;;;;;;1589548;73;822;-61
2023/04/24 00:51:54;;;;;;;;;;;22.10;55.70;;;;;;1579497;73;797;-62
2023/04/24 00:53:56;;;;;;;;;;;22.10;55.80;;;;;;1577778;73;1563;-61
2023/04/24 00:55:58;;;;;;;;;;;22.10;55.50;;;;;;1583705;73;1178;-61
2023/04/24 00:58:00;;;;;;;;;;;22.10;55.30;;;;;;1572359;73;715;-61
2023/04/24 01:00:03;;;;;;;;;;;22.00;55.10;;;;;;1585119;73;700;-61
2023/04/24 01:02:05;;;;;;;;;;;22.10;55.70;;;;;;1576760;73;671;-61
2023/04/24 01:04:07;;;;;;;;;;;22.00;55.50;;;;;;1593638;73;694;-61
2023/04/24 01:06:09;;;;;;;;;;;21.90;55.50;;;;;;1600123;72;1945;-61
2023/04/24 01:08:11;;;;;;;;;;;22.00;55.60;;;;;;1571963;73;1534;-61
2023/04/24 01:10:14;;;;;;;;;;;21.90;55.40;;;;;;1578828;73;804;-61
2023/04/24 01:12:16;;;;;;;;;;;21.90;55.50;;;;;;1580264;73;806;-61
2023/04/24 01:14:18;;;;;;;;;;;22.00;55.50;;;;;;1577490;73;758;-61
2023/04/24 01:16:22;;;;;;;;;;;22.00;55.40;;;;;;1585803;73;1137;-61
2023/04/24 01:18:24;;;;;;;;;;;22.00;55.40;;;;;;1586813;73;767;-60
2023/04/24 01:20:26;;;;;;;;;;;22.00;55.30;;;;;;1582698;73;756;-61
2023/04/24 01:22:31;;;;;;;;;;;22.00;55.40;;;;;;1586098;73;1538;-61
2023/04/24 01:24:33;;;;;;;;;;;21.90;55.60;;;;;;1575557;73;1150;-61
2023/04/24 01:26:35;;;;;;;;;;;21.90;55.70;;;;;;1583215;73;1925;-61
2023/04/24 01:28:37;;;;;;;;;;;21.90;55.90;;;;;;1575625;73;870;-61
2023/04/24 01:30:39;;;;;;;;;;;21.90;55.80;;;;;;1585928;73;672;-62
2023/04/24 01:32:41;;;;;;;;;;;21.90;56.00;;;;;;1574453;73;609;-61
2023/04/24 01:34:43;;;;;;;;;;;21.90;55.80;;;;;;1579026;73;1131;-61
2023/04/24 01:36:46;;;;;;;;;;;22.00;55.50;;;;;;1579928;73;1578;-61
2023/04/24 01:38:48;;;;;;;;;;;22.00;55.90;;;;;;1575970;73;697;-61
2023/04/24 01:40:50;;;;;;;;;;;21.90;56.20;;;;;;1574735;73;805;-61
2023/04/24 01:42:52;;;;;;;;;;;22.00;56.20;;;;;;1581515;73;795;-60
2023/04/24 01:44:54;;;;;;;;;;;22.00;56.00;;;;;;1586025;73;1126;-61
2023/04/24 01:46:56;;;;;;;;;;;22.00;55.80;;;;;;1574355;73;1919;-61
2023/04/24 01:48:59;;;;;;;;;;;22.00;55.70;;;;;;1574386;73;814;-61
2023/04/24 01:51:00;;;;;;;;;;;22.00;55.70;;;;;;1582544;73;1710;-61
2023/04/24 01:53:02;;;;;;;;;;;22.00;55.70;;;;;;1579375;73;710;-61
2023/04/24 01:55:05;;;;;;;;;;;22.10;55.90;;;;;;1579921;73;1178;-61
2023/04/24 01:57:07;;;;;;;;;;;22.00;55.70;;;;;;1584240;73;734;-60
2023/04/24 01:59:10;;;;;;;;;;;22.10;56.00;;;;;;1580295;73;797;-62
2023/04/24 02:01:13;;;;;;;;;;;22.10;55.50;;;;;;1572517;73;641;-60
2023/04/24 02:03:15;;;;;;;;;;;22.20;55.70;;;;;;1573334;73;1932;-60
2023/04/24 02:05:17;;;;;;;;;;;22.20;55.70;;;;;;1575923;73;1685;-61
2023/04/24 02:07:19;;;;;;;;;;;22.10;55.80;;;;;;1586491;73;1942;-60
2023/04/24 02:09:21;;;;;;;;;;;22.10;56.00;;;;;;1582607;73;744;-61
2023/04/24 02:11:23;;;;;;;;;;;22.10;56.00;;;;;;1577269;73;747;-61
2023/04/24 02:13:25;;;;;;;;;;;22.20;56.00;;;;;;1579153;73;686;-61
2023/04/24 02:15:26;;;;;;;;;;;22.10;55.90;;;;;;1574576;73;1183;-60
2023/04/24 02:17:28;;;;;;;;;;;22.20;55.70;;;;;;1579232;73;787;-61
2023/04/24 02:19:30;;;;;;;;;;;22.20;55.60;;;;;;1573756;73;1519;-61
2023/04/24 02:21:32;;;;;;;;;;;22.20;55.60;;;;;;1580675;73;757;-61
2023/04/24 02:23:34;;;;;;;;;;;22.20;55.50;;;;;;1585082;73;766;-60
2023/04/24 02:25:36;;;;;;;;;;;22.30;55.70;;;;;;1580333;73;1121;-60
2023/04/24 02:27:38;;;;;;;;;;;22.30;55.70;;;;;;1570732;75;1937;-61
2023/04/24 02:29:40;;;;;;;;;;;22.30;55.40;;;;;;1579276;73;642;-62
2023/04/24 02:31:42;;;;;;;;;;;22.30;55.90;;;;;;1581716;73;1550;-62
2023/04/24 02:33:43;;;;;;;;;;;22.20;55.60;;;;;;1582547;73;627;-61
2023/04/24 02:35:45;;;;;;;;;;;22.30;55.60;;;;;;1578451;73;1123;-63
2023/04/24 02:37:47;;;;;;;;;;;22.30;55.40;;;;;;1583804;73;757;-62
2023/04/24 02:39:49;;;;;;;;;;;22.30;55.30;;;;;;1583118;73;768;-61
2023/04/24 02:41:51;;;;;;;;;;;22.30;55.00;;;;;;1573378;73;688;-61
2023/04/24 02:43:53;;;;;;;;;;;22.30;54.90;;;;;;1577364;73;817;-61
2023/04/24 02:45:55;;;;;;;;;;;22.30;54.90;;;;;;1584547;73;1571;-62
2023/04/24 02:47:56;;;;;;;;;;;22.30;55.30;;;;;;1576863;73;1942;-62
2023/04/24 02:49:58;;;;;;;;;;;22.20;54.90;;;;;;1595527;74;805;-63
2023/04/24 02:52:00;;;;;;;;;;;22.30;55.60;;;;;;1590938;74;665;-62
2023/04/24 02:54:02;;;;;;;;;;;22.20;55.20;;;;;;1595908;73;729;-61
2023/04/24 02:56:04;;;;;;;;;;;22.20;55.20;;;;;;1587092;73;1174;-63
2023/04/24 02:58:06;;;;;;;;;;;22.20;55.10;;;;;;1590968;74;725;-63
2023/04/24 03:00:09;;;;;;;;;;;22.20;55.10;;;;;;1585415;74;1530;-62
2023/04/24 03:02:10;;;;;;;;;;;22.20;54.80;;;;;;1584508;73;705;-62
2023/04/24 03:04:12;;;;;;;;;;;22.20;54.80;;;;;;1585737;74;703;-64
2023/04/24 03:06:15;;;;;;;;;;;22.20;54.80;;;;;;1592202;73;1073;-63
2023/04/24 03:08:17;;;;;;;;;;;22.20;54.80;;;;;;1584291;74;1918;-63
2023/04/24 03:10:19;;;;;;;;;;;22.20;55.00;;;;;;1593459;74;730;-63
2023/04/24 03:12:23;;;;;;;;;;;22.10;55.30;;;;;;1590491;74;780;-63
2023/04/24 03:14:24;;;;;;;;;;;22.10;55.40;;;;;;1588312;73;1548;-60
2023/04/24 03:16:26;;;;;;;;;;;22.10;56.20;;;;;;1589182;74;743;-62
2023/04/24 03:18:28;;;;;;;;;;;22.10;56.90;;;;;;1591618;74;687;-62
2023/04/24 03:20:30;;;;;;;;;;;22.00;56.60;;;;;;1590936;74;732;-60
2023/04/24 03:22:33;;;;;;;;;;;22.10;56.70;;;;;;1589549;74;756;-62
2023/04/24 03:24:35;;;;;;;;;;;22.00;56.70;;;;;;1579197;74;1127;-63
2023/04/24 03:26:37;;;;;;;;;;;22.10;56.50;;;;;;1587962;74;1942;-62
2023/04/24 03:28:39;;;;;;;;;;;22.00;56.70;;;;;;1581757;74;1560;-61
2023/04/24 03:30:41;;;;;;;;;;;22.00;56.70;;;;;;1594597;74;722;-62
2023/04/24 03:32:43;;;;;;;;;;;22.00;56.50;;;;;;1593219;74;817;-63
2023/04/24 03:34:45;;;;;;;;;;;22.00;56.40;;;;;;1592681;73;1157;-62
2023/04/24 03:36:50;;;;;;;;;;;22.00;56.30;;;;;;1587633;74;701;-62
2023/04/24 03:38:52;;;;;;;;;;;22.00;56.20;;;;;;1590590;74;761;-62
2023/04/24 03:40:54;;;;;;;;;;;22.00;56.10;;;;;;1584298;73;757;-62
2023/04/24 03:42:55;;;;;;;;;;;22.00;56.20;;;;;;1580461;74;1534;-62
2023/04/24 03:44:57;;;;;;;;;;;22.10;56.30;;;;;;1577530;74;1093;-60
2023/04/24 03:46:59;;;;;;;;;;;22.00;56.20;;;;;;1575272;74;1922;-61
2023/04/24 03:49:01;;;;;;;;;;;22.00;56.10;;;;;;1582251;74;1112;-62
2023/04/24 03:51:03;;;;;;;;;;;22.00;55.90;;;;;;1578874;74;690;-62
2023/04/24 03:53:05;;;;;;;;;;;22.10;56.00;;;;;;1581614;74;1026;-63
2023/04/24 03:55:07;;;;;;;;;;;22.10;56.00;;;;;;1594413;74;1204;-62
2023/04/24 03:57:09;;;;;;;;;;;22.10;56.50;;;;;;1581197;74;1361;-60
2023/04/24 03:59:11;;;;;;;;;;;22.00;56.00;;;;;;1593141;73;757;-62
2023/04/24 04:01:15;;;;;;;;;;;22.00;56.30;;;;;;1583683;74;769;-63
2023/04/24 04:03:17;;;;;;;;;;;21.90;56.20;;;;;;1596281;74;1724;-63
2023/04/24 04:05:19;;;;;;;;;;;22.00;56.00;;;;;;1592975;74;1147;-63
2023/04/24 04:07:21;;;;;;;;;;;21.90;55.70;;;;;;1584862;74;1917;-63
2023/04/24 04:09:23;;;;;;;;;;;22.00;55.90;;;;;;1588554;74;741;-62
2023/04/24 04:11:25;;;;;;;;;;;22.00;55.70;;;;;;1587812;74;1543;-61
2023/04/24 04:13:27;;;;;;;;;;;22.00;55.60;;;;;;1582179;74;762;-62
2023/04/24 04:15:29;;;;;;;;;;;22.00;55.60;;;;;;1582939;74;1183;-61
2023/04/24 04:17:30;;;;;;;;;;;22.10;55.50;;;;;;1582913;74;741;-63
2023/04/24 04:19:32;;;;;;;;;;;22.10;55.20;;;;;;1589785;74;766;-63
2023/04/24 04:21:34;;;;;;;;;;;22.10;55.20;;;;;;1595845;74;782;-63
2023/04/24 04:23:36;;;;;;;;;;;22.10;55.20;;;;;;1593491;74;751;-62
2023/04/24 04:25:38;;;;;;;;;;;22.10;55.40;;;;;;1585318;73;1522;-62
2023/04/24 04:27:41;;;;;;;;;;;22.10;55.40;;;;;;1587596;74;1929;-61
2023/04/24 04:29:43;;;;;;;;;;;22.10;55.80;;;;;;1597255;74;794;-61
2023/04/24 04:31:45;;;;;;;;;;;22.10;55.50;;;;;;1587631;74;756;-62
2023/04/24 04:33:47;;;;;;;;;;;22.10;55.20;;;;;;1583993;74;735;-61
2023/04/24 04:35:49;;;;;;;;;;;22.10;55.10;;;;;;1583133;74;1121;-62
2023/04/24 04:37:51;;;;;;;;;;;22.10;55.10;;;;;;1586596;74;806;-63
2023/04/24 04:39:53;;;;;;;;;;;22.10;55.30;;;;;;1584301;73;1670;-62
2023/04/24 04:41:55;;;;;;;;;;;22.10;55.20;;;;;;1576321;73;750;-61
2023/04/24 04:43:58;;;;;;;;;;;22.10;55.30;;;;;;1584911;74;809;-61
2023/04/24 04:46:00;;;;;;;;;;;22.10;55.50;;;;;;1586035;74;1122;-63
2023/04/24 04:48:03;;;;;;;;;;;22.00;55.30;;;;;;1580271;74;1918;-62
2023/04/24 04:50:05;;;;;;;;;;;22.10;55.30;;;;;;1574226;73;1123;-62
2023/04/24 04:52:07;;;;;;;;;;;22.00;55.50;;;;;;1593469;73;773;-61
2023/04/24 04:54:09;;;;;;;;;;;22.00;55.40;;;;;;1586026;73;1672;-63
2023/04/24 04:56:11;;;;;;;;;;;22.10;55.70;;;;;;1578902;73;1124;-63
2023/04/24 04:58:12;;;;;;;;;;;22.00;55.60;;;;;;1576292;73;697;-62
2023/04/24 05:00:15;;;;;;;;;;;22.00;55.60;;;;;;1578389;73;856;-62
2023/04/24 05:02:17;;;;;;;;;;;22.00;55.70;;;;;;1578775;75;718;-63
2023/04/24 05:04:19;;;;;;;;;;;22.00;55.80;;;;;;1578445;73;712;-63
2023/04/24 05:06:21;;;;;;;;;;;22.00;55.60;;;;;;1581069;73;1124;-61
2023/04/24 05:08:23;;;;;;;;;;;22.00;55.80;;;;;;1579763;73;2068;-63
2023/04/24 05:10:24;;;;;;;;;;;22.00;55.60;;;;;;1587684;73;696;-63
2023/04/24 05:12:27;;;;;;;;;;;22.00;55.60;;;;;;1575669;73;724;-63
2023/04/24 05:14:28;;;;;;;;;;;22.00;56.00;;;;;;1582624;73;1183;-62
2023/04/24 05:16:30;;;;;;;;;;;22.00;55.70;;;;;;1577592;73;713;-63
2023/04/24 05:18:32;;;;;;;;;;;21.90;55.80;;;;;;1562698;73;769;-63
2023/04/24 05:20:34;;;;;;;;;;;21.90;55.90;;;;;;1582569;73;700;-60
2023/04/24 05:22:36;;;;;;;;;;;21.90;56.10;;;;;;1586178;73;772;-60
2023/04/24 05:24:38;;;;;;;;;;;21.90;56.00;;;;;;1591365;73;1110;-59
2023/04/24 05:26:40;;;;;;;;;;;21.90;56.10;;;;;;1572885;73;664;-60
2023/04/24 05:28:42;;;;;;;;;;;21.90;55.90;;;;;;1576792;75;1924;-61
2023/04/24 05:30:44;;;;;;;;;;;21.90;55.70;;;;;;1578612;73;840;-60
2023/04/24 05:32:46;;;;;;;;;;;21.90;55.70;;;;;;1580616;73;949;-59
2023/04/24 05:34:48;;;;;;;;;;;22.00;55.60;;;;;;1585367;73;1187;-61
2023/04/24 05:36:50;;;;;;;;;;;22.00;55.50;;;;;;1583079;73;797;-61
2023/04/24 05:38:52;;;;;;;;;;;22.00;55.30;;;;;;1594047;73;885;-60
2023/04/24 05:40:54;;;;;;;;;;;22.00;55.20;;;;;;1569303;73;688;-61
2023/04/24 05:42:56;;;;;;;;;;;22.10;55.10;;;;;;1586244;73;773;-61
2023/04/24 05:44:58;;;;;;;;;;;22.10;55.00;;;;;;1579561;73;1129;-62
2023/04/24 05:47:00;;;;;;;;;;;22.10;54.90;;;;;;1565704;73;591;-61
2023/04/24 05:49:02;;;;;;;;;;;22.00;54.70;;;;;;1569374;73;1917;-61
2023/04/24 05:51:04;;;;;;;;;;;22.00;54.70;;;;;;1579257;73;1478;-61
2023/04/24 05:53:07;;;;;;;;;;;22.10;54.70;;;;;;1582665;73;1534;-61
2023/04/24 05:55:08;;;;;;;;;;;22.10;54.60;;;;;;1579260;73;1465;-61
2023/04/24 05:57:10;;;;;;;;;;;22.10;54.50;;;;;;1574545;73;1497;-61
2023/04/24 05:59:12;;;;;;;;;;;22.10;54.50;;;;;;1586676;73;1489;-61
2023/04/24 06:01:14;;;;;;;;;;;22.10;54.40;;;;;;1583929;73;1451;-61
2023/04/24 06:03:16;;;;;;;;;;;22.20;54.40;;;;;;1584510;73;1421;-61
2023/04/24 06:05:18;;;;;;;;;;;22.10;54.30;;;;;;1580002;73;1499;-64
2023/04/24 06:07:21;;;;;;;;;;;22.20;54.20;;;;;;1586691;73;1537;-63
2023/04/24 06:09:23;;;;;;;;;;;22.10;54.20;;;;;;1573902;73;1934;-63
2023/04/24 06:11:25;;;;;;;;;;;22.10;54.20;;;;;;1578278;73;1750;-63
2023/04/24 06:13:27;;;;;;;;;;;22.20;54.20;;;;;;1583351;73;1458;-64
2023/04/24 06:15:30;;;;;;;;;;;22.10;54.20;;;;;;1578627;73;1527;-63
2023/04/24 06:17:32;;;;;;;;;;;22.10;54.40;;;;;;1583427;73;1079;-69
2023/04/24 06:19:34;;;;;;;;;;;22.10;54.50;;;;;;1584244;73;1753;-63
2023/04/24 06:21:36;;;;;;;;;;;22.10;54.50;;;;;;1571740;73;1506;-63
2023/04/24 06:23:38;;;;;;;;;;;22.10;54.50;;;;;;1576333;73;1105;-63
2023/04/24 06:25:40;;;;;;;;;;;22.10;55.50;;;;;;1584049;73;1522;-61
2023/04/24 06:27:42;;;;;;;;;;;22.10;55.90;;;;;;1576107;73;1926;-63
2023/04/24 06:29:43;;;;;;;;;;;22.10;56.50;;;;;;1579056;73;1521;-65
2023/04/24 06:31:45;;;;;;;;;;;22.20;56.10;;;;;;1576137;73;1546;-66
2023/04/24 06:33:48;;;;;;;;;;;22.10;56.80;;;;;;1573605;73;1251;-63
2023/04/24 06:35:50;;;;;;;;;;;22.10;56.40;;;;;;1583928;73;1388;-66
2023/04/24 06:37:52;;;;;;;;;;;22.20;56.10;;;;;;1576651;73;1314;-63
2023/04/24 06:39:53;;;;;;;;;;;22.10;56.00;;;;;;1572444;73;1102;-63
2023/04/24 06:41:55;;;;;;;;;;;22.10;56.10;;;;;;1565776;73;1114;-64
2023/04/24 06:43:57;;;;;;;;;;;22.20;56.00;;;;;;1567884;73;1071;-62
2023/04/24 06:46:00;;;;;;;;;;;22.10;56.00;;;;;;1575208;73;1195;-64
2023/04/24 06:48:01;;;;;;;;;;;22.10;56.00;;;;;;1578118;73;1919;-63
2023/04/24 06:50:04;;;;;;;;;;;22.20;55.80;;;;;;1588181;73;1200;-63
2023/04/24 06:52:06;;;;;;;;;;;22.20;55.80;;;;;;1587988;74;1077;-63
2023/04/24 06:54:08;;;;;;;;;;;22.20;55.80;;;;;;1580823;73;1511;-67
2023/04/24 06:56:10;;;;;;;;;;;22.20;55.70;;;;;;1590797;73;1197;-63
2023/04/24 06:58:11;;;;;;;;;;;22.20;55.70;;;;;;1586405;74;1095;-66
2023/04/24 07:00:14;;;;;;;;;;;22.20;55.60;;;;;;1578293;73;1089;-67
2023/04/24 07:02:16;;;;;;;;;;;22.30;55.70;;;;;;1578706;73;1445;-67
2023/04/24 07:04:18;;;;;;;;;;;22.20;55.50;;;;;;1583910;73;1110;-63
2023/04/24 07:06:22;;;;;;;;;;;22.20;55.60;;;;;;1581961;73;1128;-69
2023/04/24 07:08:23;;;;;;;;;;;22.20;55.50;;;;;;1580793;73;1942;-63
2023/04/24 07:10:28;;;;;;;;;;;22.20;55.50;;;;;;1586941;73;1313;-63
2023/04/24 07:12:29;;;;;;;;;;;22.20;55.50;;;;;;1584476;73;1697;-64
2023/04/24 07:14:31;;;;;;;;;;;22.20;55.50;;;;;;1580816;73;1136;-68
2023/04/24 07:16:33;;;;;;;;;;;22.20;55.50;;;;;;1577435;73;1478;-64
2023/04/24 07:18:34;;;;;;;;;;;22.20;55.90;;;;;;1588384;73;1126;-62
2023/04/24 07:20:36;;;;;;;;;;;22.20;55.50;;;;;;1590748;73;1067;-63
2023/04/24 07:22:38;;;;;;;;;;;22.20;55.50;;;;;;1583034;73;1133;-64
2023/04/24 07:24:40;;;;;;;;;;;22.20;55.40;;;;;;1587301;73;1177;-63
2023/04/24 07:26:42;;;;;;;;;;;22.20;55.50;;;;;;1596593;73;1228;-63
2023/04/24 07:28:44;;;;;;;;;;;22.20;55.50;;;;;;1588761;73;1937;-63
2023/04/24 07:30:46;;;;;;;;;;;22.20;55.40;;;;;;1592878;73;1493;-66
2023/04/24 07:32:48;;;;;;;;;;;22.20;55.30;;;;;;1581195;74;1093;-66
2023/04/24 07:34:50;;;;;;;;;;;22.20;55.40;;;;;;1581792;73;1148;-61
2023/04/24 07:36:52;;;;;;;;;;;22.20;55.30;;;;;;1586333;73;1127;-61
2023/04/24 07:38:55;;;;;;;;;;;22.20;55.30;;;;;;1550798;74;1148;-61
2023/04/24 07:40:57;;;;;;;;;;;22.20;55.30;;;;;;1589446;73;1097;-60
2023/04/24 07:42:59;;;;;;;;;;;22.20;55.20;;;;;;1595725;74;1397;-60
2023/04/24 07:45:01;;;;;;;;;;;22.20;55.30;;;;;;1585865;73;1447;-60
2023/04/24 07:47:03;;;;;;;;;;;22.20;55.20;;;;;;1594909;73;1125;-61
2023/04/24 07:49:05;;;;;;;;;;;22.20;55.20;;;;;;1585490;74;1940;-61
2023/04/24 07:51:09;;;;;;;;;;;22.20;55.30;;;;;;1594485;73;1122;-61
2023/04/24 07:53:10;;;;;;;;;;;22.20;55.30;;;;;;1591244;74;1657;-61
2023/04/24 07:55:12;;;;;;;;;;;22.30;55.40;;;;;;1586137;73;1162;-61
2023/04/24 07:57:14;;;;;;;;;;;22.20;55.30;;;;;;1582338;73;1162;-62
2023/04/24 07:59:16;;;;;;;;;;;22.20;55.30;;;;;;1590198;73;1469;-61
2023/04/24 08:01:18;;;;;;;;;;;22.20;55.30;;;;;;1592879;73;1160;-60
2023/04/24 08:03:20;;;;;;;;;;;22.30;55.40;;;;;;1591952;73;1104;-62
2023/04/24 08:05:22;;;;;;;;;;;22.30;55.40;;;;;;1588189;73;1154;-61
2023/04/24 08:07:24;;;;;;;;;;;22.20;55.20;;;;;;1597391;73;1095;-60
2023/04/24 08:09:26;;;;;;;;;;;22.20;55.20;;;;;;1591314;74;1913;-61
2023/04/24 08:11:28;;;;;;;;;;;22.20;55.20;;;;;;1592859;73;1103;-61
2023/04/24 08:13:30;;;;;;;;;;;22.20;55.20;;;;;;1581544;73;1492;-60
2023/04/24 08:15:31;;;;;;;;;;;22.20;55.10;;;;;;1585247;73;1255;-61
2023/04/24 08:17:35;;;;;;;;;;;22.20;55.20;;;;;;1581753;73;1058;-60
2023/04/24 08:19:37;;;;;;;;;;;22.20;55.10;;;;;;1592067;74;1050;-61
2023/04/24 08:21:38;;;;;;;;;;;22.20;55.00;;;;;;1586294;73;1190;-61
2023/04/24 08:23:40;;;;;;;;;;;22.20;55.00;;;;;;1577286;73;1157;-62
2023/04/24 08:25:42;;;;;;;;;;;22.20;55.00;;;;;;1594365;73;1201;-61
2023/04/24 08:27:44;;;;;;;;;;;22.20;55.00;;;;;;1591822;73;1466;-62
2023/04/24 08:29:46;;;;;;;;;;;22.20;55.00;;;;;;1592512;73;1913;-60
2023/04/24 08:31:48;;;;;;;;;;;22.20;54.90;;;;;;1606364;73;1107;-61
2023/04/24 08:33:50;;;;;;;;;;;22.20;54.80;;;;;;1591663;73;1151;-61
2023/04/24 08:35:53;;;;;;;;;;;22.20;54.90;;;;;;1589328;73;1152;-61
2023/04/24 08:37:55;;;;;;;;;;;22.20;54.90;;;;;;1593197;74;1134;-61
2023/04/24 08:39:57;;;;;;;;;;;22.20;54.90;;;;;;1584286;73;1101;-61
2023/04/24 08:42:05;;;;;;;;;;;22.20;54.90;;;;;;1581964;73;1540;-61
2023/04/24 08:44:02;;;;;;;;;;;22.20;54.90;;;;;;1573198;73;1641;-61
2023/04/24 08:46:04;;;;;;;;;;;22.20;54.80;;;;;;1573911;73;1472;-61
2023/04/24 08:48:06;;;;;;;;;;;22.20;54.80;;;;;;1593625;73;1074;-61
2023/04/24 08:50:09;;;;;;;;;;;22.20;54.80;;;;;;1593586;73;1931;-60
2023/04/24 08:52:12;;;;;;;;;;;22.20;54.80;;;;;;1576904;73;1081;-61
2023/04/24 08:54:14;;;;;;;;;;;22.20;54.80;;;;;;1577883;73;1120;-60
2023/04/24 08:56:17;;;;;;;;;;;22.20;54.80;;;;;;1577775;73;1494;-60
2023/04/24 08:58:19;;;;;;;;;;;22.20;54.80;;;;;;1590521;73;1078;-61
2023/04/24 09:00:21;;;;;;;;;;;22.20;54.70;;;;;;1577013;73;1109;-60
2023/04/24 09:02:23;;;;;;;;;;;22.20;54.70;;;;;;1585676;73;1008;-60
2023/04/24 09:04:25;;;;;;;;;;;22.20;54.80;;;;;;1585662;73;1515;-60
2023/04/24 09:06:27;;;;;;;;;;;22.20;54.70;;;;;;1578441;73;1144;-62
2023/04/24 09:08:29;;;;;;;;;;;22.20;54.70;;;;;;1579766;73;1090;-62
2023/04/24 09:10:31;;;;;;;;;;;22.20;54.70;;;;;;1577169;73;1883;-60
2023/04/24 09:12:33;;;;;;;;;;;22.20;54.70;;;;;;1578351;73;1057;-61
2023/04/24 09:14:36;;;;;;;;;;;22.20;54.80;;;;;;1574778;73;1477;-61
2023/04/24 09:16:38;;;;;;;;;;;22.20;54.90;;;;;;1582803;73;1094;-61
2023/04/24 09:18:40;;;;;;;;;;;22.20;55.10;;;;;;1580384;73;1177;-60
2023/04/24 09:21:01;;;;;;;;;;;22.30;55.10;;;;;;1586144;73;1067;-61
2023/04/24 09:23:02;;;;;;;;;;;22.30;55.10;;;;;;1590540;73;1247;-61
2023/04/24 09:25:06;;;;;;;;;;;22.40;55.00;;;;;;1591272;73;1133;-61
2023/04/24 09:27:08;;;;;;;;;;;22.30;54.90;;;;;;1581068;73;1512;-61
2023/04/24 09:29:11;;;;;;;;;;;22.50;55.00;;;;;;1572894;73;1957;-59
2023/04/24 09:31:17;;;;;;;;;;;22.40;54.90;;;;;;1568328;73;1936;-60
2023/04/24 09:33:18;;;;;;;;;;;22.40;54.90;;;;;;1583991;73;1999;-60
2023/04/24 09:35:20;;;;;;;;;;;22.40;54.70;;;;;;1580398;73;1143;-60
2023/04/24 09:37:31;;;;;;;;;;;22.50;55.00;;;;;;1572352;73;1288;-64
2023/04/24 09:39:33;;;;;;;;;;;22.50;54.80;;;;;;1586461;73;1207;-63
2023/04/24 09:41:34;;;;;;;;;;;22.50;54.70;;;;;;1564746;73;695;-63
2023/04/24 09:43:36;;;;;;;;;;;22.50;54.70;;;;;;1565660;73;707;-63
2023/04/24 09:45:39;;;;;;;;;;;22.50;54.60;;;;;;1572945;73;1101;-66
2023/04/24 09:47:41;;;;;;;;;;;22.40;54.30;;;;;;1575285;73;719;-64
2023/04/24 09:49:43;;;;;;;;;;;22.50;54.20;;;;;;1599025;73;1964;-64
2023/04/24 09:51:45;;;;;;;;;;;22.40;53.90;;;;;;1584713;73;1563;-64
2023/04/24 09:53:47;;;;;;;;;;;22.40;53.90;;;;;;1587777;73;716;-65
2023/04/24 09:55:50;;;;;;;;;;;22.30;53.60;;;;;;1580890;73;1161;-66
2023/04/24 09:57:59;;;;;;;;;;;22.40;53.60;;;;;;1579226;73;760;-63
2023/04/24 10:00:01;;;;;;;;;;;22.30;53.40;;;;;;1569401;73;716;-64
2023/04/24 10:02:03;;;;;;;;;;;22.30;53.10;;;;;;1592908;73;704;-63
2023/04/24 10:04:05;;;;;;;;;;;22.20;52.80;;;;;;1568702;73;726;-64
2023/04/24 10:06:11;;;;;;;;;;;22.20;52.80;;;;;;1572961;73;1603;-65
2023/04/24 10:08:11;;;;;;;;;;;22.20;52.70;;;;;;1584959;73;1311;-63
2023/04/24 10:10:13;;;;;;;;;;;22.20;53.00;;;;;;1592489;73;1920;-64
2023/04/24 10:12:15;;;;;;;;;;;22.20;52.90;;;;;;1583064;73;729;-63
2023/04/24 10:14:21;;;;;;;;;;;22.10;52.80;;;;;;1579146;73;756;-62
2023/04/24 10:16:26;;;;;;;;;;;22.10;52.80;;;;;;1573077;73;1122;-63
2023/04/24 10:18:28;;;;;;;;;;;22.10;52.80;;;;;;1605550;73;706;-63
2023/04/24 10:20:30;;;;;;;;;;;22.10;52.80;;;;;;1585634;73;1576;-64
2023/04/24 10:22:32;;;;;;;;;;;22.10;52.90;;;;;;1572410;72;224453;-64
2023/04/24 10:24:36;;;;;;;;;;;22.10;52.80;;;;;;1581893;73;1408;-64
2023/04/24 10:26:38;;;;;;;;;;;22.10;52.60;;;;;;1594139;73;1469;-65
2023/04/24 10:28:40;;;;;;;;;;;22.20;52.50;;;;;;1582239;73;1464;-64
2023/04/24 10:30:43;;;;;;;;;;;22.20;52.30;;;;;;1579987;73;1977;-70
2023/04/24 10:32:45;;;;;;;;;;;22.20;52.30;;;;;;1581952;73;1199;-64
2023/04/24 10:34:47;;;;;;;;;;;22.20;52.30;;;;;;1582431;72;1408;-65
2023/04/24 10:36:50;;;;;;;;;;;22.20;52.20;;;;;;1579868;73;1387;-64
2023/04/24 10:38:52;;;;;;;;;;;22.30;52.30;;;;;;1581293;73;1491;-65
2023/04/24 10:41:13;;;;;;;;;;;22.30;52.10;;;;;;1573573;73;1077;-65
2023/04/24 10:43:14;;;;;;;;;;;22.30;52.10;;;;;;1580002;73;1421;-64
2023/04/24 10:45:17;;;;;;;;;;;22.20;51.80;;;;;;1558474;74;1160;-63
2023/04/24 10:47:19;;;;;;;;;;;22.40;52.10;;;;;;1580873;73;1419;-64
2023/04/24 10:49:30;;;;;;;;;;;22.40;52.00;;;;;;1581267;73;1924;-65
2023/04/24 10:51:56;;;;;;;;;;;22.40;52.00;;;;;;1599655;72;1584;-64
2023/04/24 10:53:56;;;;;;;;;;;22.40;51.80;;;;;;1575000;73;1204;-66
2023/04/24 10:55:59;;;;;;;;;;;22.40;51.60;;;;;;1549918;74;1230;-67
2023/04/24 10:58:03;;;;;;;;;;;22.50;51.80;;;;;;1590405;73;1097;-66
2023/04/24 11:00:13;;;;;;;;;;;22.50;51.60;;;;;;1584191;73;1373;-65
2023/04/24 11:02:15;;;;;;;;;;;22.50;51.50;;;;;;1580814;73;1492;-66
2023/04/24 11:04:19;;;;;;;;;;;22.50;51.50;;;;;;1580430;73;1424;-65
2023/04/24 11:06:24;;;;;;;;;;;22.60;51.60;;;;;;1584289;73;1123;-67
2023/04/24 11:08:28;;;;;;;;;;;22.50;51.40;;;;;;1554595;74;1140;-64
2023/04/24 11:10:29;;;;;;;;;;;22.40;51.40;;;;;;1583903;73;1934;-65
2023/04/24 11:12:33;;;;;;;;;;;22.50;51.50;;;;;;1585290;73;1427;-67
2023/04/24 11:14:53;;;;;;;;;;;22.50;51.50;;;;;;1581649;73;1432;-67
2023/04/24 11:16:55;;;;;;;;;;;22.40;51.30;;;;;;1578484;73;1514;-64
2023/04/24 11:19:07;;;;;;;;;;;22.50;51.50;;;;;;1584497;73;1104;-64
2023/04/24 11:21:13;;;;;;;;;;;22.40;51.30;;;;;;1575775;73;1121;-65
2023/04/24 11:23:15;;;;;;;;;;;22.50;51.40;;;;;;1575898;73;1416;-65
2023/04/24 11:25:17;;;;;;;;;;;22.50;51.30;;;;;;1591230;73;1436;-64
2023/04/24 11:27:20;;;;;;;;;;;22.50;51.40;;;;;;1577121;73;1386;-66
2023/04/24 11:29:22;;;;;;;;;;;22.40;51.30;;;;;;1578867;73;1336;-66
2023/04/24 11:31:41;;;;;;;;;;;22.40;51.30;;;;;;1588133;73;1401;-65
2023/04/24 11:33:43;;;;;;;;;;;22.50;51.50;;;;;;1582512;73;1377;-64
2023/04/24 11:35:45;;;;;;;;;;;22.40;51.30;;;;;;1587556;73;1401;-65
2023/04/24 11:37:51;;;;;;;;;;;22.50;51.40;;;;;;1586096;73;1365;-64
2023/04/24 11:39:52;;;;;;;;;;;22.40;51.30;;;;;;1585076;73;1352;-64
2023/04/24 11:41:53;;;;;;;;;;;22.50;51.30;;;;;;1587875;73;1428;-65
2023/04/24 11:43:55;;;;;;;;;;;22.50;51.30;;;;;;1583904;73;1446;-68
2023/04/24 11:45:59;;;;;;;;;;;22.50;51.20;;;;;;1577680;73;1412;-69
2023/04/24 11:48:03;;;;;;;;;;;22.50;51.30;;;;;;1577492;73;1066;-68
2023/04/24 11:50:05;;;;;;;;;;;22.50;51.10;;;;;;1578923;73;1949;-65
2023/04/24 11:52:07;;;;;;;;;;;22.50;51.20;;;;;;1585708;73;1513;-64
2023/04/24 11:54:09;;;;;;;;;;;22.50;51.20;;;;;;1572196;73;1428;-64
2023/04/24 11:56:11;;;;;;;;;;;22.50;51.10;;;;;;1586787;73;1444;-64
2023/04/24 11:58:13;;;;;;;;;;;22.50;51.10;;;;;;1585970;73;1378;-65
2023/04/24 12:00:16;;;;;;;;;;;22.50;51.10;;;;;;1588489;73;1444;-65
2023/04/24 12:02:19;;;;;;;;;;;22.50;51.00;;;;;;1585838;72;1145;-64
2023/04/24 12:04:21;;;;;;;;;;;22.50;51.00;;;;;;1576380;73;1477;-65
2023/04/24 12:06:23;;;;;;;;;;;22.50;51.00;;;;;;1588842;73;1456;-66